sensor_id;sensor_type;location;lat;lon;timestamp;pressure;altitude;pressure_sealevel;temperature;humidity
28267;BME280;15525;45.568;5.448;2023-05-14T00:01:45;97970.84;;;17.17;62.24
28267;BME280;15525;45.568;5.448;2023-05-14T00:04:11;97967.34;;;17.08;62.01
28267;BME280;15525;45.568;5.448;2023-05-14T00:06:36;97971.34;;;17.19;62.10
28267;BME280;15525;45.568;5.448;2023-05-14T00:09:02;97960.03;;;17.17;62.28
28267;BME280;15525;45.568;5.448;2023-05-14T00:11:28;97968.97;;;17.26;62.10
28267;BME280;15525;45.568;5.448;2023-05-14T00:13:54;97952.41;;;17.19;61.99
28267;BME280;15525;45.568;5.448;2023-05-14T00:16:19;97960.25;;;17.29;61.89
28267;BME280;15525;45.568;5.448;2023-05-14T00:18:45;97955.97;;;17.37;61.96
28267;BME280;15525;45.568;5.448;2023-05-14T00:21:10;97961.66;;;17.27;61.95
28267;BME280;15525;45.568;5.448;2023-05-14T00:23:36;97940.78;;;17.10;62.21
28267;BME280;15525;45.568;5.448;2023-05-14T00:26:01;97933.94;;;17.13;62.22
28267;BME280;15525;45.568;5.448;2023-05-14T00:28:26;97959.13;;;17.30;62.21
28267;BME280;15525;45.568;5.448;2023-05-14T00:30:52;97939.38;;;17.21;61.88
28267;BME280;15525;45.568;5.448;2023-05-14T00:33:17;97953.03;;;17.16;62.18
28267;BME280;15525;45.568;5.448;2023-05-14T00:35:43;97949.72;;;17.19;62.06
28267;BME280;15525;45.568;5.448;2023-05-14T00:38:08;97937.63;;;17.25;62.08
28267;BME280;15525;45.568;5.448;2023-05-14T00:40:34;97922.16;;;17.17;62.29
28267;BME280;15525;45.568;5.448;2023-05-14T00:42:59;97924.75;;;17.22;62.38
28267;BME280;15525;45.568;5.448;2023-05-14T00:45:25;97940.03;;;17.27;62.43
28267;BME280;15525;45.568;5.448;2023-05-14T00:47:51;97928.22;;;17.23;62.21
28267;BME280;15525;45.568;5.448;2023-05-14T00:50:17;97933.69;;;17.31;62.38
28267;BME280;15525;45.568;5.448;2023-05-14T00:52:43;97920.28;;;17.26;62.29
28267;BME280;15525;45.568;5.448;2023-05-14T00:55:10;97922.97;;;17.26;61.94
28267;BME280;15525;45.568;5.448;2023-05-14T00:57:40;97923.47;;;17.28;62.01
28267;BME280;15525;45.568;5.448;2023-05-14T01:00:07;97925.22;;;17.33;62.03
28267;BME280;15525;45.568;5.448;2023-05-14T01:02:33;97908.97;;;17.24;61.97
28267;BME280;15525;45.568;5.448;2023-05-14T01:04:58;97892.38;;;17.00;61.90
28267;BME280;15525;45.568;5.448;2023-05-14T01:10:22;97915.53;;;16.84;62.58
28267;BME280;15525;45.568;5.448;2023-05-14T01:13:08;97902.91;;;16.71;62.62
28267;BME280;15525;45.568;5.448;2023-05-14T01:15:36;97904.38;;;16.77;62.79
28267;BME280;15525;45.568;5.448;2023-05-14T01:18:09;97910.84;;;16.68;62.73
28267;BME280;15525;45.568;5.448;2023-05-14T01:20:35;97901.00;;;16.63;63.01
28267;BME280;15525;45.568;5.448;2023-05-14T01:23:01;97924.19;;;16.64;63.09
28267;BME280;15525;45.568;5.448;2023-05-14T01:25:28;97914.97;;;16.65;63.20
28267;BME280;15525;45.568;5.448;2023-05-14T01:28:01;97917.44;;;16.84;63.13
28267;BME280;15525;45.568;5.448;2023-05-14T01:30:33;97918.75;;;16.95;62.76
28267;BME280;15525;45.568;5.448;2023-05-14T01:33:02;97924.06;;;17.08;62.29
28267;BME280;15525;45.568;5.448;2023-05-14T01:35:30;97914.50;;;17.02;62.33
28267;BME280;15525;45.568;5.448;2023-05-14T01:38:00;97916.06;;;17.03;62.50
28267;BME280;15525;45.568;5.448;2023-05-14T01:40:26;97904.75;;;16.93;61.92
28267;BME280;15525;45.568;5.448;2023-05-14T01:42:52;97888.19;;;16.86;62.02
28267;BME280;15525;45.568;5.448;2023-05-14T01:45:20;97899.53;;;16.96;62.31
28267;BME280;15525;45.568;5.448;2023-05-14T01:47:45;97917.84;;;16.99;62.38
28267;BME280;15525;45.568;5.448;2023-05-14T01:50:11;97910.19;;;16.93;62.11
28267;BME280;15525;45.568;5.448;2023-05-14T01:52:37;97915.25;;;16.94;62.54
28267;BME280;15525;45.568;5.448;2023-05-14T01:55:02;97906.50;;;16.97;62.63
28267;BME280;15525;45.568;5.448;2023-05-14T01:57:29;97894.28;;;17.00;62.46
28267;BME280;15525;45.568;5.448;2023-05-14T01:59:54;97911.00;;;17.02;62.47
28267;BME280;15525;45.568;5.448;2023-05-14T02:02:20;97912.38;;;16.91;62.76
28267;BME280;15525;45.568;5.448;2023-05-14T02:04:45;97912.81;;;16.76;63.01
28267;BME280;15525;45.568;5.448;2023-05-14T02:07:11;97910.50;;;16.61;63.38
28267;BME280;15525;45.568;5.448;2023-05-14T02:09:36;97903.31;;;16.56;63.32
28267;BME280;15525;45.568;5.448;2023-05-14T02:12:02;97910.19;;;16.62;63.28
28267;BME280;15525;45.568;5.448;2023-05-14T02:14:27;97889.94;;;16.51;63.27
28267;BME280;15525;45.568;5.448;2023-05-14T02:16:53;97907.97;;;16.64;63.11
28267;BME280;15525;45.568;5.448;2023-05-14T02:19:18;97909.94;;;16.72;63.08
28267;BME280;15525;45.568;5.448;2023-05-14T02:21:44;97904.53;;;16.72;62.70
28267;BME280;15525;45.568;5.448;2023-05-14T02:24:09;97910.19;;;16.62;62.99
28267;BME280;15525;45.568;5.448;2023-05-14T02:26:34;97898.91;;;16.60;63.20
28267;BME280;15525;45.568;5.448;2023-05-14T02:29:00;97911.66;;;16.68;63.05
28267;BME280;15525;45.568;5.448;2023-05-14T02:31:25;97910.38;;;16.66;63.30
28267;BME280;15525;45.568;5.448;2023-05-14T02:33:51;97910.69;;;16.64;63.10
28267;BME280;15525;45.568;5.448;2023-05-14T02:36:16;97903.38;;;16.65;63.16
28267;BME280;15525;45.568;5.448;2023-05-14T02:38:41;97899.03;;;16.55;63.27
28267;BME280;15525;45.568;5.448;2023-05-14T02:41:07;97899.78;;;16.47;63.21
28267;BME280;15525;45.568;5.448;2023-05-14T02:43:32;97896.09;;;16.43;63.52
28267;BME280;15525;45.568;5.448;2023-05-14T02:45:58;97887.13;;;16.34;63.99
28267;BME280;15525;45.568;5.448;2023-05-14T02:48:23;97879.16;;;16.29;64.09
28267;BME280;15525;45.568;5.448;2023-05-14T02:50:49;97883.22;;;16.40;63.90
28267;BME280;15525;45.568;5.448;2023-05-14T02:53:16;97887.41;;;16.55;63.14
28267;BME280;15525;45.568;5.448;2023-05-14T02:55:41;97858.13;;;16.48;63.27
28267;BME280;15525;45.568;5.448;2023-05-14T02:58:07;97889.53;;;16.66;62.88
28267;BME280;15525;45.568;5.448;2023-05-14T03:00:32;97889.59;;;16.75;62.94
28267;BME280;15525;45.568;5.448;2023-05-14T03:03:00;97904.25;;;16.82;63.02
28267;BME280;15525;45.568;5.448;2023-05-14T03:05:25;97880.81;;;16.69;63.15
28267;BME280;15525;45.568;5.448;2023-05-14T03:07:51;97879.84;;;16.65;63.07
28267;BME280;15525;45.568;5.448;2023-05-14T03:10:18;97893.53;;;16.69;63.01
28267;BME280;15525;45.568;5.448;2023-05-14T03:12:43;97874.53;;;16.52;63.03
28267;BME280;15525;45.568;5.448;2023-05-14T03:15:12;97875.13;;;16.40;63.65
28267;BME280;15525;45.568;5.448;2023-05-14T03:17:37;97885.03;;;16.53;63.60
28267;BME280;15525;45.568;5.448;2023-05-14T03:20:03;97890.13;;;16.55;62.97
28267;BME280;15525;45.568;5.448;2023-05-14T03:22:28;97885.66;;;16.50;63.47
28267;BME280;15525;45.568;5.448;2023-05-14T03:24:54;97901.44;;;16.57;63.65
28267;BME280;15525;45.568;5.448;2023-05-14T03:27:19;97878.16;;;16.47;63.41
28267;BME280;15525;45.568;5.448;2023-05-14T03:29:45;97892.22;;;16.58;63.51
28267;BME280;15525;45.568;5.448;2023-05-14T03:32:10;97881.31;;;16.41;63.51
28267;BME280;15525;45.568;5.448;2023-05-14T03:34:36;97884.22;;;16.44;63.83
28267;BME280;15525;45.568;5.448;2023-05-14T03:37:01;97883.72;;;16.42;63.59
28267;BME280;15525;45.568;5.448;2023-05-14T03:39:27;97894.53;;;16.51;63.62
28267;BME280;15525;45.568;5.448;2023-05-14T03:41:52;97896.63;;;16.54;63.15
28267;BME280;15525;45.568;5.448;2023-05-14T03:44:17;97881.16;;;16.46;63.56
28267;BME280;15525;45.568;5.448;2023-05-14T03:46:43;97886.13;;;16.52;63.62
28267;BME280;15525;45.568;5.448;2023-05-14T03:49:08;97895.88;;;16.62;63.37
28267;BME280;15525;45.568;5.448;2023-05-14T03:51:34;97901.13;;;16.58;63.39
28267;BME280;15525;45.568;5.448;2023-05-14T03:53:59;97888.56;;;16.62;63.58
28267;BME280;15525;45.568;5.448;2023-05-14T03:56:25;97879.00;;;16.56;63.39
28267;BME280;15525;45.568;5.448;2023-05-14T03:58:51;97899.03;;;16.55;63.66
28267;BME280;15525;45.568;5.448;2023-05-14T04:01:16;97887.25;;;16.29;64.31
28267;BME280;15525;45.568;5.448;2023-05-14T04:03:42;97869.84;;;16.13;64.23
28267;BME280;15525;45.568;5.448;2023-05-14T04:06:07;97881.22;;;16.24;64.12
28267;BME280;15525;45.568;5.448;2023-05-14T04:08:33;97881.38;;;16.27;64.04
28267;BME280;15525;45.568;5.448;2023-05-14T04:10:58;97881.09;;;16.37;64.28
28267;BME280;15525;45.568;5.448;2023-05-14T04:13:24;97872.91;;;16.42;63.62
28267;BME280;15525;45.568;5.448;2023-05-14T04:15:49;97865.03;;;16.54;63.11
28267;BME280;15525;45.568;5.448;2023-05-14T04:18:15;97882.38;;;16.62;63.34
28267;BME280;15525;45.568;5.448;2023-05-14T04:20:41;97879.97;;;16.60;63.17
28267;BME280;15525;45.568;5.448;2023-05-14T04:23:07;97879.16;;;16.60;63.09
28267;BME280;15525;45.568;5.448;2023-05-14T04:25:32;97879.38;;;16.63;63.20
28267;BME280;15525;45.568;5.448;2023-05-14T04:27:57;97885.03;;;16.53;63.19
28267;BME280;15525;45.568;5.448;2023-05-14T04:30:23;97877.59;;;16.59;63.25
28267;BME280;15525;45.568;5.448;2023-05-14T04:32:48;97866.63;;;16.64;63.20
28267;BME280;15525;45.568;5.448;2023-05-14T04:35:14;97886.59;;;16.76;63.03
28267;BME280;15525;45.568;5.448;2023-05-14T04:37:39;97887.84;;;16.79;62.85
28267;BME280;15525;45.568;5.448;2023-05-14T04:40:06;97886.28;;;16.86;62.91
28267;BME280;15525;45.568;5.448;2023-05-14T04:42:32;97879.78;;;16.87;62.65
28267;BME280;15525;45.568;5.448;2023-05-14T04:44:57;97886.75;;;16.88;62.68
28267;BME280;15525;45.568;5.448;2023-05-14T04:47:23;97888.34;;;16.89;62.90
28267;BME280;15525;45.568;5.448;2023-05-14T04:49:48;97887.91;;;16.96;62.63
28267;BME280;15525;45.568;5.448;2023-05-14T04:52:14;97904.31;;;16.99;62.84
28267;BME280;15525;45.568;5.448;2023-05-14T04:54:39;97890.66;;;17.04;62.66
28267;BME280;15525;45.568;5.448;2023-05-14T04:57:05;97882.53;;;17.04;62.34
28267;BME280;15525;45.568;5.448;2023-05-14T04:59:31;97903.88;;;17.23;62.22
28267;BME280;15525;45.568;5.448;2023-05-14T05:01:57;97893.38;;;17.13;62.10
28267;BME280;15525;45.568;5.448;2023-05-14T05:04:23;97892.84;;;17.02;62.12
28267;BME280;15525;45.568;5.448;2023-05-14T05:06:49;97891.25;;;17.01;62.42
28267;BME280;15525;45.568;5.448;2023-05-14T05:09:16;97898.56;;;17.01;62.56
28267;BME280;15525;45.568;5.448;2023-05-14T05:11:41;97889.16;;;16.90;62.51
28267;BME280;15525;45.568;5.448;2023-05-14T05:14:06;97898.19;;;16.85;62.42
28267;BME280;15525;45.568;5.448;2023-05-14T05:16:32;97897.06;;;16.78;62.88
28267;BME280;15525;45.568;5.448;2023-05-14T05:18:57;97901.56;;;16.52;63.37
28267;BME280;15525;45.568;5.448;2023-05-14T05:21:23;97901.44;;;16.57;63.42
28267;BME280;15525;45.568;5.448;2023-05-14T05:23:48;97905.31;;;16.73;63.14
28267;BME280;15525;45.568;5.448;2023-05-14T05:26:13;97905.84;;;16.92;62.85
28267;BME280;15525;45.568;5.448;2023-05-14T05:28:39;97914.66;;;17.06;62.19
28267;BME280;15525;45.568;5.448;2023-05-14T05:31:04;97897.03;;;17.08;62.49
28267;BME280;15525;45.568;5.448;2023-05-14T05:33:30;97894.50;;;17.20;61.97
28267;BME280;15525;45.568;5.448;2023-05-14T05:35:55;97916.03;;;17.34;61.83
28267;BME280;15525;45.568;5.448;2023-05-14T05:38:21;97924.44;;;17.32;61.95
28267;BME280;15525;45.568;5.448;2023-05-14T05:40:46;97919.50;;;17.26;61.81
28267;BME280;15525;45.568;5.448;2023-05-14T05:43:13;97913.41;;;17.12;61.98
28267;BME280;15525;45.568;5.448;2023-05-14T05:45:39;97915.34;;;17.20;62.11
28267;BME280;15525;45.568;5.448;2023-05-14T05:48:05;97915.66;;;17.27;61.90
28267;BME280;15525;45.568;5.448;2023-05-14T05:50:31;97903.41;;;17.29;61.82
28267;BME280;15525;45.568;5.448;2023-05-14T05:52:56;97906.88;;;17.13;61.92
28267;BME280;15525;45.568;5.448;2023-05-14T05:55:24;97885.47;;;16.86;62.68
28267;BME280;15525;45.568;5.448;2023-05-14T05:57:49;97885.19;;;16.96;62.91
28267;BME280;15525;45.568;5.448;2023-05-14T06:00:15;97897.94;;;16.95;62.53
28267;BME280;15525;45.568;5.448;2023-05-14T06:02:41;97909.94;;;17.20;62.50
28267;BME280;15525;45.568;5.448;2023-05-14T06:05:08;97899.28;;;17.32;62.41
28267;BME280;15525;45.568;5.448;2023-05-14T06:07:33;97899.28;;;17.23;61.82
28267;BME280;15525;45.568;5.448;2023-05-14T06:09:59;97905.47;;;17.24;62.41
28267;BME280;15525;45.568;5.448;2023-05-14T06:12:25;97905.81;;;17.22;62.72
28267;BME280;15525;45.568;5.448;2023-05-14T06:14:50;97901.78;;;17.11;62.82
28267;BME280;15525;45.568;5.448;2023-05-14T06:17:16;97900.41;;;17.31;62.63
28267;BME280;15525;45.568;5.448;2023-05-14T06:19:42;97886.59;;;17.49;62.25
28267;BME280;15525;45.568;5.448;2023-05-14T06:22:07;97907.63;;;17.52;61.70
28267;BME280;15525;45.568;5.448;2023-05-14T06:24:32;97900.94;;;17.41;62.27
28267;BME280;15525;45.568;5.448;2023-05-14T06:26:58;97906.94;;;17.38;61.89
28267;BME280;15525;45.568;5.448;2023-05-14T06:29:24;97913.94;;;17.31;62.28
28267;BME280;15525;45.568;5.448;2023-05-14T06:31:49;97892.38;;;17.00;62.43
28267;BME280;15525;45.568;5.448;2023-05-14T06:34:15;97911.84;;;17.28;62.69
28267;BME280;15525;45.568;5.448;2023-05-14T06:36:40;97898.00;;;17.29;62.71
28267;BME280;15525;45.568;5.448;2023-05-14T06:39:05;97904.91;;;17.52;62.22
28267;BME280;15525;45.568;5.448;2023-05-14T06:41:31;97900.13;;;17.49;61.93
28267;BME280;15525;45.568;5.448;2023-05-14T06:43:56;97907.31;;;17.62;61.88
28267;BME280;15525;45.568;5.448;2023-05-14T06:46:22;97901.91;;;17.79;61.39
28267;BME280;15525;45.568;5.448;2023-05-14T06:48:47;97909.38;;;17.99;61.12
28267;BME280;15525;45.568;5.448;2023-05-14T06:51:13;97915.28;;;18.18;60.98
28267;BME280;15525;45.568;5.448;2023-05-14T06:53:39;97925.78;;;18.37;60.79
28267;BME280;15525;45.568;5.448;2023-05-14T06:56:05;97901.59;;;17.98;61.27
28267;BME280;15525;45.568;5.448;2023-05-14T06:58:30;97908.44;;;17.87;61.69
28267;BME280;15525;45.568;5.448;2023-05-14T07:00:57;97911.44;;;18.11;61.14
28267;BME280;15525;45.568;5.448;2023-05-14T07:03:22;97922.75;;;18.21;61.29
28267;BME280;15525;45.568;5.448;2023-05-14T07:05:48;97919.88;;;18.26;61.08
28267;BME280;15525;45.568;5.448;2023-05-14T07:08:13;97924.38;;;17.80;62.10
28267;BME280;15525;45.568;5.448;2023-05-14T07:10:39;97921.97;;;17.53;62.53
28267;BME280;15525;45.568;5.448;2023-05-14T07:13:04;97934.84;;;17.47;63.31
28267;BME280;15525;45.568;5.448;2023-05-14T07:15:30;97927.38;;;17.70;62.90
28267;BME280;15525;45.568;5.448;2023-05-14T07:17:55;97911.25;;;17.39;63.33
28267;BME280;15525;45.568;5.448;2023-05-14T07:20:21;97931.59;;;17.28;63.83
28267;BME280;15525;45.568;5.448;2023-05-14T07:22:48;97915.38;;;17.37;63.22
28267;BME280;15525;45.568;5.448;2023-05-14T07:25:14;97925.91;;;17.47;63.51
28267;BME280;15525;45.568;5.448;2023-05-14T07:27:40;97911.28;;;17.48;62.83
28267;BME280;15525;45.568;5.448;2023-05-14T07:30:06;97914.97;;;17.52;62.43
28267;BME280;15525;45.568;5.448;2023-05-14T07:32:32;97911.16;;;17.78;62.60
28267;BME280;15525;45.568;5.448;2023-05-14T07:34:57;97902.53;;;17.93;61.67
28267;BME280;15525;45.568;5.448;2023-05-14T07:37:23;97915.91;;;18.15;62.02
28267;BME280;15525;45.568;5.448;2023-05-14T07:39:53;97914.50;;;18.09;61.77
28267;BME280;15525;45.568;5.448;2023-05-14T07:42:18;97896.50;;;17.79;61.82
28267;BME280;15525;45.568;5.448;2023-05-14T07:44:43;97918.47;;;17.69;62.56
28267;BME280;15525;45.568;5.448;2023-05-14T07:47:10;97917.53;;;17.82;62.31
28267;BME280;15525;45.568;5.448;2023-05-14T07:49:35;97889.50;;;17.61;62.38
28267;BME280;15525;45.568;5.448;2023-05-14T07:52:01;97910.50;;;17.81;62.63
28267;BME280;15525;45.568;5.448;2023-05-14T07:54:26;97896.00;;;17.94;62.21
28267;BME280;15525;45.568;5.448;2023-05-14T07:56:52;97912.44;;;17.98;62.13
28267;BME280;15525;45.568;5.448;2023-05-14T07:59:17;97892.97;;;17.53;62.27
28267;BME280;15525;45.568;5.448;2023-05-14T08:01:43;97911.59;;;17.46;62.58
28267;BME280;15525;45.568;5.448;2023-05-14T08:04:08;97912.72;;;17.45;62.98
28267;BME280;15525;45.568;5.448;2023-05-14T08:06:36;97915.13;;;17.64;62.88
28267;BME280;15525;45.568;5.448;2023-05-14T08:09:01;97919.75;;;17.97;62.38
28267;BME280;15525;45.568;5.448;2023-05-14T08:11:29;97915.91;;;17.81;62.66
28267;BME280;15525;45.568;5.448;2023-05-14T08:13:55;97904.16;;;17.77;62.53
28267;BME280;15525;45.568;5.448;2023-05-14T08:16:20;97916.56;;;17.61;63.46
28267;BME280;15525;45.568;5.448;2023-05-14T08:18:46;97891.41;;;17.69;62.66
28267;BME280;15525;45.568;5.448;2023-05-14T08:21:11;97882.97;;;17.96;62.39
28267;BME280;15525;45.568;5.448;2023-05-14T08:23:37;97895.81;;;18.16;62.17
28267;BME280;15525;45.568;5.448;2023-05-14T08:26:02;97899.97;;;18.39;62.26
28267;BME280;15525;45.568;5.448;2023-05-14T08:28:28;97893.25;;;18.45;62.46
28267;BME280;15525;45.568;5.448;2023-05-14T08:30:53;97895.09;;;18.70;61.82
28267;BME280;15525;45.568;5.448;2023-05-14T08:33:19;97902.22;;;18.83;61.54
28267;BME280;15525;45.568;5.448;2023-05-14T08:35:44;97898.28;;;18.64;61.95
28267;BME280;15525;45.568;5.448;2023-05-14T08:38:09;97900.69;;;18.65;62.40
28267;BME280;15525;45.568;5.448;2023-05-14T08:40:35;97887.31;;;18.60;62.42
28267;BME280;15525;45.568;5.448;2023-05-14T08:43:01;97900.72;;;18.57;62.34
28267;BME280;15525;45.568;5.448;2023-05-14T08:45:29;97911.19;;;18.75;62.35
28267;BME280;15525;45.568;5.448;2023-05-14T08:47:58;97903.91;;;18.96;61.86
28267;BME280;15525;45.568;5.448;2023-05-14T08:50:25;97898.56;;;19.08;61.45
28267;BME280;15525;45.568;5.448;2023-05-14T08:52:52;97893.25;;;18.91;61.44
28267;BME280;15525;45.568;5.448;2023-05-14T08:55:17;97897.03;;;18.61;62.27
28267;BME280;15525;45.568;5.448;2023-05-14T08:57:44;97913.53;;;18.14;63.37
28267;BME280;15525;45.568;5.448;2023-05-14T09:00:11;97904.97;;;18.66;62.56
28267;BME280;15525;45.568;5.448;2023-05-14T09:02:38;97912.16;;;18.71;61.99
28267;BME280;15525;45.568;5.448;2023-05-14T09:05:04;97905.69;;;18.92;61.53
28267;BME280;15525;45.568;5.448;2023-05-14T09:07:32;97904.50;;;18.73;61.69
28267;BME280;15525;45.568;5.448;2023-05-14T09:09:58;97910.63;;;18.53;62.27
28267;BME280;15525;45.568;5.448;2023-05-14T09:12:23;97889.44;;;18.46;62.33
28267;BME280;15525;45.568;5.448;2023-05-14T09:14:49;97899.91;;;18.56;62.23
28267;BME280;15525;45.568;5.448;2023-05-14T09:17:16;97901.81;;;18.56;62.09
28267;BME280;15525;45.568;5.448;2023-05-14T09:19:43;97902.31;;;18.49;62.53
28267;BME280;15525;45.568;5.448;2023-05-14T09:22:12;97902.91;;;18.72;62.38
28267;BME280;15525;45.568;5.448;2023-05-14T09:24:38;97899.56;;;18.66;62.23
28267;BME280;15525;45.568;5.448;2023-05-14T09:27:05;97899.59;;;18.49;62.19
28267;BME280;15525;45.568;5.448;2023-05-14T09:29:31;97905.81;;;18.96;61.08
28267;BME280;15525;45.568;5.448;2023-05-14T09:31:58;97903.13;;;19.33;60.50
28267;BME280;15525;45.568;5.448;2023-05-14T09:34:29;97888.41;;;19.34;60.57
28267;BME280;15525;45.568;5.448;2023-05-14T09:37:05;97895.84;;;19.17;61.02
28267;BME280;15525;45.568;5.448;2023-05-14T09:39:31;97899.31;;;19.17;60.93
28267;BME280;15525;45.568;5.448;2023-05-14T09:41:58;97901.09;;;18.84;61.51
28267;BME280;15525;45.568;5.448;2023-05-14T09:44:23;97889.16;;;19.06;61.11
28267;BME280;15525;45.568;5.448;2023-05-14T09:46:49;97895.19;;;19.49;60.28
28267;BME280;15525;45.568;5.448;2023-05-14T09:49:15;97888.50;;;19.46;60.10
28267;BME280;15525;45.568;5.448;2023-05-14T09:51:41;97891.19;;;19.17;61.07
28267;BME280;15525;45.568;5.448;2023-05-14T09:54:07;97882.41;;;18.91;61.85
28267;BME280;15525;45.568;5.448;2023-05-14T09:56:33;97885.28;;;19.24;60.95
28267;BME280;15525;45.568;5.448;2023-05-14T09:58:59;97889.13;;;19.23;61.30
28267;BME280;15525;45.568;5.448;2023-05-14T10:01:27;97887.75;;;19.37;61.08
28267;BME280;15525;45.568;5.448;2023-05-14T10:03:53;97903.72;;;19.80;60.54
28267;BME280;15525;45.568;5.448;2023-05-14T10:06:22;97905.41;;;19.23;60.65
28267;BME280;15525;45.568;5.448;2023-05-14T10:08:48;97895.78;;;18.96;61.50
28267;BME280;15525;45.568;5.448;2023-05-14T10:11:18;97885.31;;;19.15;60.88
28267;BME280;15525;45.568;5.448;2023-05-14T10:16:55;97901.88;;;19.22;60.74
28267;BME280;15525;45.568;5.448;2023-05-14T10:19:23;97899.28;;;19.55;60.34
28267;BME280;15525;45.568;5.448;2023-05-14T10:21:55;97917.06;;;18.77;61.99
28267;BME280;15525;45.568;5.448;2023-05-14T10:24:21;97909.69;;;18.86;61.80
28267;BME280;15525;45.568;5.448;2023-05-14T10:26:48;97902.16;;;19.00;61.20
28267;BME280;15525;45.568;5.448;2023-05-14T10:29:14;97891.88;;;18.77;61.60
28267;BME280;15525;45.568;5.448;2023-05-14T10:31:50;97889.28;;;18.80;61.96
28267;BME280;15525;45.568;5.448;2023-05-14T10:34:34;97909.69;;;18.86;62.85
28267;BME280;15525;45.568;5.448;2023-05-14T10:37:04;97897.25;;;18.85;61.96
28267;BME280;15525;45.568;5.448;2023-05-14T10:39:46;97895.28;;;18.94;62.40
28267;BME280;15525;45.568;5.448;2023-05-14T10:42:24;97901.03;;;19.01;62.15
28267;BME280;15525;45.568;5.448;2023-05-14T10:47:17;97901.97;;;18.97;62.34
28267;BME280;15525;45.568;5.448;2023-05-14T10:49:44;97892.06;;;19.01;62.52
28267;BME280;15525;45.568;5.448;2023-05-14T10:52:15;97897.09;;;19.19;62.24
28267;BME280;15525;45.568;5.448;2023-05-14T10:54:47;97889.78;;;19.11;62.26
28267;BME280;15525;45.568;5.448;2023-05-14T10:57:13;97889.69;;;18.99;62.14
28267;BME280;15525;45.568;5.448;2023-05-14T10:59:42;97893.22;;;19.29;62.12
28267;BME280;15525;45.568;5.448;2023-05-14T11:02:28;97885.59;;;19.22;62.87
28267;BME280;15525;45.568;5.448;2023-05-14T11:05:01;97891.63;;;19.28;62.23
28267;BME280;15525;45.568;5.448;2023-05-14T11:07:30;97898.84;;;19.53;62.30
28267;BME280;15525;45.568;5.448;2023-05-14T11:10:04;97886.16;;;19.57;62.00
28267;BME280;15525;45.568;5.448;2023-05-14T11:12:30;97888.69;;;19.62;61.43
28267;BME280;15525;45.568;5.448;2023-05-14T11:14:57;97886.84;;;19.74;61.54
28267;BME280;15525;45.568;5.448;2023-05-14T11:17:25;97881.13;;;20.08;61.29
28267;BME280;15525;45.568;5.448;2023-05-14T11:19:50;97867.59;;;20.20;60.42
28267;BME280;15525;45.568;5.448;2023-05-14T11:22:16;97854.06;;;19.91;61.08
28267;BME280;15525;45.568;5.448;2023-05-14T11:24:42;97874.72;;;19.92;61.15
28267;BME280;15525;45.568;5.448;2023-05-14T11:27:07;97877.88;;;19.94;61.68
28267;BME280;15525;45.568;5.448;2023-05-14T11:29:35;97880.34;;;20.08;61.14
28267;BME280;15525;45.568;5.448;2023-05-14T11:32:03;97868.97;;;20.26;61.05
28267;BME280;15525;45.568;5.448;2023-05-14T11:34:29;97862.50;;;19.98;60.95
28267;BME280;15525;45.568;5.448;2023-05-14T11:36:54;97866.25;;;20.06;61.03
28267;BME280;15525;45.568;5.448;2023-05-14T11:39:20;97859.28;;;19.84;61.13
28267;BME280;15525;45.568;5.448;2023-05-14T11:41:45;97871.09;;;20.00;61.27
28267;BME280;15525;45.568;5.448;2023-05-14T11:44:11;97853.72;;;19.81;61.85
28267;BME280;15525;45.568;5.448;2023-05-14T11:46:36;97845.59;;;19.93;61.84
28267;BME280;15525;45.568;5.448;2023-05-14T11:49:05;97865.53;;;20.50;60.27
28267;BME280;15525;45.568;5.448;2023-05-14T11:51:31;97865.22;;;20.75;59.28
28267;BME280;15525;45.568;5.448;2023-05-14T11:53:57;97851.84;;;21.19;57.89
28267;BME280;15525;45.568;5.448;2023-05-14T11:56:25;97833.81;;;21.78;56.79
28267;BME280;15525;45.568;5.448;2023-05-14T11:58:56;97857.56;;;21.65;56.64
28267;BME280;15525;45.568;5.448;2023-05-14T12:01:22;97855.47;;;21.23;57.46
28267;BME280;15525;45.568;5.448;2023-05-14T12:03:49;97838.19;;;21.43;56.63
28267;BME280;15525;45.568;5.448;2023-05-14T12:06:14;97836.16;;;21.91;56.41
28267;BME280;15525;45.568;5.448;2023-05-14T12:08:40;97837.53;;;22.13;55.92
28267;BME280;15525;45.568;5.448;2023-05-14T12:11:07;97828.56;;;21.85;57.27
28267;BME280;15525;45.568;5.448;2023-05-14T12:13:33;97836.03;;;21.88;57.19
28267;BME280;15525;45.568;5.448;2023-05-14T12:16:00;97830.06;;;21.31;58.28
28267;BME280;15525;45.568;5.448;2023-05-14T12:18:28;97825.50;;;21.35;58.60
28267;BME280;15525;45.568;5.448;2023-05-14T12:20:54;97820.19;;;21.66;57.63
28267;BME280;15525;45.568;5.448;2023-05-14T12:23:26;97821.16;;;21.85;57.27
28267;BME280;15525;45.568;5.448;2023-05-14T12:25:52;97815.13;;;21.92;57.18
28267;BME280;15525;45.568;5.448;2023-05-14T12:28:18;97825.72;;;21.42;57.74
28267;BME280;15525;45.568;5.448;2023-05-14T12:30:44;97829.09;;;21.90;57.00
28267;BME280;15525;45.568;5.448;2023-05-14T12:33:10;97819.09;;;21.55;57.24
28267;BME280;15525;45.568;5.448;2023-05-14T12:35:36;97820.44;;;21.73;57.28
28267;BME280;15525;45.568;5.448;2023-05-14T12:38:02;97816.94;;;21.88;56.76
28267;BME280;15525;45.568;5.448;2023-05-14T12:40:28;97824.94;;;22.24;55.82
28267;BME280;15525;45.568;5.448;2023-05-14T12:42:53;97821.00;;;22.37;55.49
28267;BME280;15525;45.568;5.448;2023-05-14T12:45:19;97830.31;;;21.93;56.56
28267;BME280;15525;45.568;5.448;2023-05-14T12:47:45;97827.84;;;21.88;56.63
28267;BME280;15525;45.568;5.448;2023-05-14T12:50:10;97822.72;;;21.59;56.29
28267;BME280;15525;45.568;5.448;2023-05-14T12:52:36;97824.19;;;21.05;56.38
28267;BME280;15525;45.568;5.448;2023-05-14T12:55:01;97815.53;;;20.78;57.12
28267;BME280;15525;45.568;5.448;2023-05-14T12:57:27;97826.66;;;20.85;57.03
28267;BME280;15525;45.568;5.448;2023-05-14T12:59:54;97811.81;;;21.07;56.53
28267;BME280;15525;45.568;5.448;2023-05-14T13:02:19;97822.44;;;21.36;56.23
28267;BME280;15525;45.568;5.448;2023-05-14T13:04:46;97820.56;;;21.52;55.81